Terminal Aerodrome Forecast
Issued by NWS

Home | Current Version | Previous Version | Text Only | Print | Product List | Glossary On
Versions: 1 2 3 4 5 6 7 8 9 10 11 12 13 14 15 16 17 18 19 20 21 22 23 24 25 26 27 28 29 30 31 32 33 34 35 36
000
FTAK31 PANC 121720
TAFAHO
TAF
PAHO 121720Z 1218/1318 09010KT P6SM -SHRA BKN040
     FM130000 10014G22KT P6SM VCSH BKN045
     FM130700 07007KT P6SM BKN045
     FM131100 09015G25KT 6SM -RA BKN025=

USA.gov is the U.S. government's official web portal to all federal, state and local government web resources and services.